Main page
METAR-TAF:

METAR-TAF

Airports :

Boulmer, England

RAF Boulmer

latitude: 55-25-19N, longitude: 1-36-12W, elevation: 24 m

Current weather observation

The report was made 1 hour and 4 minutes ago, at 17:50 UTC
Wind 3 kt from the South/Southeast
Temperature 8°C
Humidity 81%
Pressure 1027 hPa
Visibility 10 km or more

METAR: EGQM 261750Z AUTO 15003KT 9999 NCD 08/05 Q1027

Time: 19:54 (18:54 UTC)


TAF: missing

Weather observations and forecasts of more than 4000 airports (METAR and TAF reports).

The available stations are represented by yellow and red dots on the map.

Hover mouse over dot to see the name of the station.

Then click to see weather observations and forecasts.

To change the map : click on the green buttons with a black cross to zoom in, on the green button with a dash to zoom out, or on the green arrows for adjacent maps.


METAR-TAF: